Racecast

Cassandra Cheek

Sheldon (CA) (CA) · 12 · DELTACA D1SJS D1 · Compare head to head

Athlete rating 95.1 2014 XC season
Best race 111.0 XC
Races 47
Seasons 4 2011 — 2014

RankedNation #89391·CA #11090·CA D1 #5114·SJS #1288·SJS D1 #933·DELTA #83·Team #41 ?

Speed rating — all races

Cross Country

XC speed rating

2014 XC 89.5

Sheldon (CA) (CA) · Grade 12

Date Meet Event Result Place Rating Difficulty PR/SR Flags
2014-10-18 Willow Hills Reservoir Course 3400m 17:47 78th · 5th on team 95.8 +0.043 SR CSR RSR
2014-10-08 Granite Park 5000m 26:15 65th · 7th on team 95.1 +0.002 SR CSR RSR
2014-09-27 Elkhorn Golf Course 3218m 16:58 101st · 5th on team 88.3 -0.019 SR CSR RSR
2014-09-20 Calaveras County Fairgrounds 3218m 19:03 33rd · 2nd on team 87.7 +0.084 CSR
2014-09-13 Nevada Union High School 4828m 29:18.8 58th · 4th on team 87.8 +0.076 ★CR SR CSR RSR
2014-08-29 Lodi Lake 3218m 17:51 17th · 4th on team 82.6 -0.023 SR CSR RSR

2013 XC 98.9

Sheldon (CA) (CA) · Grade 11

Date Meet Event Result Place Rating Difficulty PR/SR Flags
2013-10-09 Granite Park 5000m 22:54 41st · 8th on team 107.9 +0.002 ★PR ★CR SR CSR RSR
2013-09-28 Elkhorn Golf Course 3218m 15:07 28th · 4th on team 98.9 -0.019 ★CR SR CSR RSR
2013-09-21 Calaveras County Fairgrounds 3218m 16:52 20th · 5th on team 96.2 +0.084 ★CR SR CSR RSR
2013-09-07 Lagoon Valley Park 3218m 18:37 43rd · 1st on team 92.5 +0.121 SR CSR RSR
2013-08-30 Eagal Lakes 5000m 33:23.2 12th · 2nd on team +0.065 ★CR SR CSR

2012 XC 101.7

Sheldon (CA) (CA) · Grade 10

Date Meet Event Result Place Rating Difficulty PR/SR Flags
2012-11-03 Calaveras County Fairgrounds 4828m 24:06 40th · 4th on team 105.5 +0.065 SR CSR
2012-10-27 Willow Hills Reservoir Course 3400m 15:57 26th · 5th on team 106.5 +0.043 SR CSR RSR
2012-10-19 Lodi Lake 3138m 14:05 10th · 5th on team 104.9 -0.003 ★PR ★CR SR CSR
2012-10-17 Granite Park 3218m 16:52 24th · 4th on team 89.6 -0.013 ★CR CSR
2012-10-13 Willow Hills Reservoir Course 5000m 24:28.7 101st · 4th on team 105.4 +0.045 SR CSR RSR
2012-10-06 Granite Park 3540m 16:50 24th · 1st on team 100.2 -0.001 ★PR ★CR SR CSR RSR
2012-08-29 Lodi Lake 3218m 15:00 31st · 5th on team 99.8 -0.023 ★PR ★CR SR CSR RSR

2011 XC 96.6

Sheldon (CA) (CA) · Grade 9

Date Meet Event Result Place Rating Difficulty PR/SR Flags
2011-11-11 Willow Hills Reservoir Course 5000m 23:38 22nd · 5th on team 109.6 +0.045 PR ★CR SR CSR
2011-11-05 Calaveras County Fairgrounds 4828m 22:56 17th · 1st on team 109.9 +0.065 ★PR ★CR SR CSR
2011-10-29 Willow Hills Reservoir Course 3400m 15:20 16th · 8th on team 111.0 +0.043 ★PR ★CR ★R SR CSR RSR
2011-10-05 Granite Park 3540m 18:06 26th · 9th on team 94.3 -0.001 PR CR R SR CSR RSR
2011-10-01 Willow Hills Reservoir Course 3300m 18:07 39th · 8th on team 91.8 +0.056 ★PR ★CR SR CSR
2011-09-24 Calaveras County Fairgrounds 3218m 19:28 59th · 4th on team 86.0 +0.084 CR CSR
2011-09-17 Nevada Union High School 4828m 29:39.4 58th · 4th on team 86.6 +0.076 PR CR SR CSR
2011-09-03 Lagoon Valley Park 3218m 18:34 60th · 5th on team 92.8 +0.121 PR ★CR R SR CSR RSR
2011-08-31 Lodi Lake 3138m 17:01 45th · 5th on team 87.4 -0.003 PR CR R SR CSR RSR

Track & Field

TF speed rating

2012 TF 103.6

Sheldon (CA) (CA) · Grade 9

Date Meet Event Result Place Rating Difficulty PR/SR Flags
2012-05-08 Delta River League Frosh/Soph Championships 1600m 6:38.75 19th · 4th on team 104.2 -0.022
2012-05-08 Delta River League Frosh/Soph Championships 3200m 14:33.07 10th · 3rd on team 102.3 -0.022
2012-04-27 Sheldon Distance Carnival 1600m 6:15.7 16th · 4th on team 109.5 -0.031 ★PR SR RSR
2012-04-27 Sheldon Distance Carnival 3200m 14:16.5 3rd · 2nd on team 103.2 -0.031
2012-04-14 Depth Charge lj 9-02.00 -0.020
2012-04-14 Depth Charge 1600m 6:53.66 1st · 1st on team 100.2 -0.020
2012-04-14 Depth Charge 3200m 14:55.41 1st · 1st on team 99.1 -0.020
2012-04-13 Bronco Roundup Distance Carnival 1600m 6:17.76 41st · 2nd on team 108.5 -0.036 PR SR RSR
2012-04-13 Bronco Roundup Distance Carnival 3200m 14:19.06 32nd · 3rd on team 102.1 -0.036
2012-04-03 Rio Linda Invitational 3200m 15:26.07 14th · 1st on team 96.5 -0.020
2012-04-03 Rio Linda Invitational 1600m 6:34.07 27th · 2nd on team 105.4 -0.020
2012-03-23 Diamondback Distance Extravaganza 1600m 6:36.2 4th · 4th on team 105.9 -0.013
2012-03-23 Diamondback Distance Extravaganza 3200m 14:10.7 3rd · 3rd on team 106.0 -0.013 ★PR SR
2012-03-21 sheldon dual 1600m 6:43.9 4th · 3rd on team 102.8 -0.020
2012-03-21 sheldon dual 3200m 14:39.4 3rd · 3rd on team 101.3 -0.020
2012-03-17 Cal Invitational 1600m 6:34.66 37th · 4th on team 105.6 -0.024
2012-03-17 Cal Invitational 3200m 14:12.84 22nd · 3rd on team 104.6 -0.024 PR SR
2012-03-10 Vallejo Relays 1600m 6:27.1 11th · 2nd on team 107.1 -0.025 PR SR RSR
2012-03-10 Meet results → Women's 1600 Meters 7:06.22 14th · 2nd on team ★PR SR
2012-03-03 Clarke Massey Relays 3200m 14:38.73 18th · 2nd on team 100.7 -0.031 PR SR RSR